Thursday, May 05, 2016
16:14 UTC
  |  Log In   |  Register Free
Airport Search:

Heart Of Georgia Regional Airport
(KEZM)

FAA data valid effective Mar 31 2016 - May 26 2016 (unless otherwise noted).

 
 
 
 
 
 
 
 
 
 
 
 
 
 
Current Aviation Weather for KEZM

Weather Summary


The most recent METAR observation for EZM was updated at: 12:55 UTC
METAR for KEZM is not available. Closest METAR is for KDBN
KEZM  (most recent observation was updatred at 51:55 UTC)
051555Z AUTO 30011G20KT 270V330 10SM CLR 19/04 A2981 RMK AO2 T01910040

KDBN  (22.1 nm SW)   (most recent observation was updated at 51:55 UTC)
051555Z AUTO 32017G21KT 10SM SCT050 19/03 A2979 RMK AO2

KAZE  (31.6 nm NW)   (most recent observation was updated at 51:55 UTC)
051555Z AUTO 31009G20KT 280V340 10SM SCT050 19/04 A2976 RMK AO2 T01940040

TAF for KEZM is not available.
KWRB  (34.6 nm SE)   (most recent observation was updatred at 51:30 UTC)
051300Z 0513/0619 30015G25KT 9999 SCT045 QNH2972INS TEMPO 0514/0520 30020G30KT BECMG 0600/0601 30009KT 9999 SKC QNH2976INS BECMG 0615/0616 33010G15KT 9999 SCT050 QNH2986INS TX23/0521Z TN07/0612Z


GlobalAir.com is loading additional information.
 Current Weather at EZM
63.0 F° (17.4 C°)

Northwest winds at 12.7 mph
Pressure:
29.81 in
Humidity:
46%
Wind:
Northwest at 12.7 mph
Dew Point:
42.3 F° (5.7 C°)
Visibility:
10.00 mi
EZM NOAA Radar




Find All Airport Services Find A Hotel Find A Rental Car Find A Golf Course Find A Restaurant $100 Hamburger



Airport Weather Forecast for KEZM

Translated METAR for KEZM (1555 UTC)
METAR:
KEZM 051555Z AUTO 30011G20KT 270V330 10SM CLR 19/04 A2981 RMK AO2 T01910040
Conditions at:
KEZM (Heart Of Georgia Rgnl, GA) observed 1555 UTC 05 May 2016
Temperature:
19°C (66.2°F)
Dewpoint:
4°C (39.2°F) [RH = 37.1]
Pressure:
29.81 inches Hg (1009.5 mb)
Winds:
from the WNW (300 degrees) at 12.7 mph (11 knots: 5.7 m/s)
gusting to 23 mph (20 knots: 10.3 m/s)
Visibility:
10 mile(s)
Ceiling:
at least 12,000 feet AGL
Clouds:
Clear below 12,000 feet AGL
Remarks:
site is un-manned
site is automated and HAS a precipitation sensor

Translated TAF for KWRB (Robins Afb, GA) (1300 UTC)
TAF text:
KWRB 051300Z 0513/0619 30015G25KT 9999 SCT045 QNH2972INS
Forecast period:
Thursday May 05 2016 13:00 UTC - Friday May 06 2016 19:00 UTC
Forecast type:
FROM: standard forecast or significant change
Winds:
from the WNW (300 degrees) at 17.3 mph (15 knots: 7.7 m/s)
gusting to 28.8 mph (25 knots: 12.9 m/s)
Visibility:
Ceiling:
at least 12,000 feet AGL
Clouds:
Scattered Clouds at 4,500 feet AGL
Weather:
no significant weather observed at this time
TAF text:
0514/0520 30020G30KT BECMG 0600/0601 30009KT 9999 SKC QNH2976INS BECMG 0615/0616 33010G15KT 9999 SCT050 QNH2986INS TX23/0521Z TN07/0612Z
Forecast period:
Friday May 06 2016 14:00 UTC - Friday May 06 2016 20:00 UTC
Forecast type:
FROM: standard forecast or significant change
Winds:
from the NNW (330 degrees) at 11.5 mph (10 knots: 5.1 m/s)
gusting to 17.3 mph (15 knots: 7.7 m/s)
Visibility:
Ceiling:
at least 12,000 feet AGL
at least 12,000 feet AGL
Clouds:
Clear Skies
Scattered Clouds at 5,000 feet AGL
Weather:
no significant weather observed at this time
FBO's on the Field
FBO Company Facility Photos Services Transportation Aviation Fuel Prices: Prices include tax
Catering Weather Repair Courtesy Rental Type 100LL JetA JetA+ MOGAS 8087
 
Heart of Georgia Regional Airport

This FBO has not yet been rated
FS:Phillips 66
Last Updated: Mar-25
Login to update fuel prices
SS:
Contact Heart of Georgia Regional AirportMore FBO Information
 
Add another FBO Facility Photos Catering Weather Repair Courtesy Rental Type 100LL JetA JetA+ MOGAS 8087
Services Transportation Aviation Fuel Prices: Prices include tax


model-print
model-print
model-print
model-print